EYVI/VNO METAR and TAF weather

Enter ICAO airport designator
Station Type Date Time Source
EYVI METAR 2018/12/12 05:20 UTC NOAA

EYVI 120520Z 01007KT 1300 0600N R01/P2000N -SN BR PRFG OVC002 M00/M01 Q1018 R01/5/0295 TEMPO 1500 SN BR


Station Type Date Time Source
EYVI Decoded METAR 2018/12/12 05:20 UTC NOAA

Vilnius, Lithuania (EYVI) 54-38N 025-06E 156M
Dec 12, 2018 - 12:20 AM EST / 2018.12.12 0520 UTC
Wind: from the N (010 degrees) at 8 MPH (7 KT):0
Visibility: less than 1 mile:0
Sky conditions: overcast
Weather: light snow; mist; partial fog
Temperature: 32 F (0 C)
Windchill: 24 F (-4 C):1
Dew Point: 30 F (-1 C)
Relative Humidity: 92%
Pressure (altimeter): 30.06 in. Hg (1018 hPa)
ob: EYVI 120520Z 01007KT 1300 0600N R01/P2000N -SN BR PRFG OVC002 M00/M01 Q1018 R01/5/0295 TEMPO 1500 SN BR
cycle: 5

Station Type Date Time Source
EYVI TAF 2018/12/12 06:06 UTC NOAA

TAF TAF EYVI 120501Z 1206/1306 01008KT 5000 BR OVC003
TEMPO 1206/1209 1500 SN
TEMPO 1209/1216 3000 SNRA
BECMG 1216/1217 OVC005
TEMPO 1217/1221 3000 SN OVC003


Example: see airport list